Time;durP1;ratioP1;P1;durP2;ratioP2;P2;SDS_P1;SDS_P2;PMS_P1;PMS_P2;Temp;Humidity;BMP_temperature;BMP_pressure;BME280_temperature;BME280_humidity;BME280_pressure;Samples;Min_cycle;Max_cycle;Signal;HPM_P1;HPM_P2
2023/11/09 00:01:39;;;;;;;19.00;10.90;;;;;;;3.93;88.07;100029.48;136774;1279;22449;-76
2023/11/09 00:04:40;;;;;;;21.40;10.00;;;;;;;3.92;87.93;100033.25;136707;1279;22385;-76
2023/11/09 00:07:41;;;;;;;20.30;10.80;;;;;;;3.91;88.08;100034.80;136752;1279;23011;-76
2023/11/09 00:10:41;;;;;;;19.10;11.20;;;;;;;3.89;87.99;100034.77;136803;1279;22387;-77
2023/11/09 00:13:42;;;;;;;17.20;10.30;;;;;;;3.86;88.47;100029.44;136768;1279;22415;-77
2023/11/09 00:16:45;;;;;;;23.60;11.40;;;;;;;3.83;88.20;100024.91;136799;1276;22431;-77
2023/11/09 00:19:46;;;;;;;22.70;11.30;;;;;;;3.82;88.64;100027.59;136758;1279;22258;-77
2023/11/09 00:22:47;;;;;;;16.60;11.30;;;;;;;3.81;88.81;100022.99;136768;1279;23040;-77
2023/11/09 00:25:47;;;;;;;;;;;;;;;3.80;88.99;100026.52;136795;1279;23190;-76
2023/11/09 00:28:50;;;;;;;21.10;11.40;;;;;;;3.79;89.03;100027.00;136762;1279;22450;-76
2023/11/09 00:31:51;;;;;;;20.60;11.30;;;;;;;3.77;88.87;100023.98;136777;1279;22413;-76
2023/11/09 00:34:52;;;;;;;20.60;11.70;;;;;;;3.75;88.95;100028.73;136762;1279;23494;-77
2023/11/09 00:37:53;;;;;;;17.70;10.60;;;;;;;3.73;88.98;100028.86;136711;1279;22440;-76
2023/11/09 00:40:58;;;;;;;17.90;10.50;;;;;;;3.72;88.98;100021.46;136746;1279;22518;-76
2023/11/09 00:44:02;;;;;;;15.70;9.90;;;;;;;3.70;88.97;100021.44;136765;1279;23229;-76
2023/11/09 00:47:06;;;;;;;13.10;9.20;;;;;;;3.68;88.98;100019.63;136766;1279;23542;-75
2023/11/09 00:50:06;;;;;;;20.20;10.00;;;;;;;3.68;88.81;100017.25;136755;1279;22564;-76
2023/11/09 00:53:12;;;;;;;18.80;9.00;;;;;;;3.67;88.98;100019.28;136768;1279;22399;-74
2023/11/09 00:56:14;;;;;;;13.70;8.60;;;;;;;3.65;89.23;100018.05;136761;1279;22393;-76
2023/11/09 00:59:14;;;;;;;16.60;9.60;;;;;;;3.63;89.12;100015.38;136743;1279;22250;-77
2023/11/09 01:02:16;;;;;;;14.80;9.30;;;;;;;3.61;89.28;100013.79;136620;1279;22398;-77
2023/11/09 01:05:16;;;;;;;16.70;9.60;;;;;;;3.58;88.98;100006.96;136765;1273;22912;-77
2023/11/09 01:08:17;;;;;;;17.40;9.10;;;;;;;3.56;89.16;100003.30;136748;1279;22374;-77
2023/11/09 01:11:22;;;;;;;12.90;8.60;;;;;;;3.54;89.17;99996.32;136739;1279;23530;-76
2023/11/09 01:14:22;;;;;;;15.80;9.10;;;;;;;3.51;89.35;99996.02;136753;1272;22402;-76
2023/11/09 01:17:23;;;;;;;12.90;8.30;;;;;;;3.50;89.40;99998.23;136791;1279;22481;-76
2023/11/09 01:20:24;;;;;;;15.30;9.10;;;;;;;3.47;89.34;99994.93;136765;1279;22503;-76
2023/11/09 01:23:26;;;;;;;16.20;8.70;;;;;;;3.45;89.13;99990.02;136766;1279;23256;-76
2023/11/09 01:26:26;;;;;;;15.20;8.60;;;;;;;3.43;89.30;99994.73;136779;1279;22441;-77
2023/11/09 01:29:27;;;;;;;14.00;8.80;;;;;;;3.42;89.16;99990.84;136783;1279;23286;-75
2023/11/09 01:32:28;;;;;;;16.00;8.40;;;;;;;3.42;89.22;99990.69;136790;1279;23136;-75
2023/11/09 01:35:34;;;;;;;12.90;7.90;;;;;;;3.40;89.33;99991.70;136715;1279;22444;-75
2023/11/09 01:38:35;;;;;;;14.30;8.00;;;;;;;3.38;89.38;99989.04;136787;1279;22441;-76
2023/11/09 01:41:36;;;;;;;15.60;8.10;;;;;;;3.36;89.47;99986.20;136792;1279;22446;-75
2023/11/09 01:44:36;;;;;;;12.60;8.00;;;;;;;3.35;89.24;99984.55;136806;1278;22428;-75
2023/11/09 01:47:37;;;;;;;13.80;7.30;;;;;;;3.35;89.54;99984.05;136702;1279;23375;-74
2023/11/09 01:50:38;;;;;;;14.00;7.10;;;;;;;3.35;89.56;99982.30;136811;1272;22368;-76
2023/11/09 01:53:38;;;;;;;;;;;;;;;3.34;89.67;99981.34;136775;1279;22420;-76
2023/11/09 01:56:39;;;;;;;12.00;6.80;;;;;;;3.32;89.45;99978.30;136643;1279;23114;-74
2023/11/09 01:59:45;;;;;;;13.00;6.80;;;;;;;3.30;89.45;99979.36;136643;1279;22394;-76
2023/11/09 02:02:48;;;;;;;14.40;7.40;;;;;;;3.30;89.20;99979.40;136801;1279;22457;-73
2023/11/09 02:05:50;;;;;;;14.00;7.10;;;;;;;3.29;89.15;99978.20;136638;1279;22494;-73
2023/11/09 02:08:51;;;;;;;12.00;7.20;;;;;;;3.28;89.28;99980.38;136768;1279;22394;-75
2023/11/09 02:11:52;;;;;;;12.90;6.80;;;;;;;3.27;89.48;99979.27;136614;1279;22427;-76
2023/11/09 02:14:53;;;;;;;13.40;7.40;;;;;;;3.26;89.39;99973.38;136805;1279;22459;-76
2023/11/09 02:17:55;;;;;;;12.60;7.40;;;;;;;3.26;89.63;99969.89;136766;1279;23149;-75
2023/11/09 02:20:58;;;;;;;22.50;10.80;;;;;;;3.26;89.30;99961.89;136808;1279;22424;-75
2023/11/09 02:24:00;;;;;;;26.20;11.30;;;;;;;3.25;89.24;99962.46;136771;1279;23222;-75
2023/11/09 02:27:05;;;;;;;17.80;7.60;;;;;;;3.23;89.43;99962.48;136801;1279;22468;-76
2023/11/09 02:30:14;;;;;;;13.00;6.80;;;;;;;3.23;89.35;99963.21;136801;1279;22427;-75
2023/11/09 02:33:14;;;;;;;15.00;6.90;;;;;;;3.22;89.37;99959.06;136652;1279;22500;-76
2023/11/09 02:36:15;;;;;;;;;;;;;;;3.20;89.45;99953.94;136729;1279;22403;-75
2023/11/09 02:39:16;;;;;;;19.20;8.30;;;;;;;3.19;89.57;99949.13;136808;1279;22442;-76
2023/11/09 02:42:25;;;;;;;14.70;7.90;;;;;;;3.20;89.18;99945.63;136742;1279;22442;-76
2023/11/09 02:45:31;;;;;;;12.60;6.50;;;;;;;3.18;89.36;99944.17;136807;1279;22488;-74
2023/11/09 02:48:32;;;;;;;13.00;5.40;;;;;;;3.18;89.13;99943.66;136805;1279;22432;-72
2023/11/09 02:51:35;;;;;;;11.50;5.40;;;;;;;3.16;89.33;99943.29;136790;1279;22445;-76
2023/11/09 02:54:37;;;;;;;13.30;6.10;;;;;;;3.16;89.17;99946.07;136798;1279;23248;-76
2023/11/09 02:57:37;;;;;;;9.80;6.40;;;;;;;3.14;89.38;99949.71;136733;1279;22403;-75
2023/11/09 03:00:38;;;;;;;9.10;5.00;;;;;;;3.13;89.38;99956.39;136779;1279;22452;-76
2023/11/09 03:03:38;;;;;;;7.80;5.30;;;;;;;3.13;89.25;99955.16;136770;1279;23134;-76
2023/11/09 03:06:39;;;;;;;10.70;4.90;;;;;;;3.12;89.32;99952.30;136789;1276;23165;-76
2023/11/09 03:09:44;;;;;;;6.80;4.20;;;;;;;3.11;89.17;99944.30;136780;1278;22229;-75
2023/11/09 03:12:47;;;;;;;10.90;4.80;;;;;;;3.11;89.25;99942.59;136786;1279;22391;-76
2023/11/09 03:15:49;;;;;;;10.00;5.00;;;;;;;3.11;89.57;99939.77;136635;1277;22332;-75
2023/11/09 03:18:52;;;;;;;9.80;5.00;;;;;;;3.11;89.55;99939.27;136802;1279;23097;-76
2023/11/09 03:21:55;;;;;;;9.20;4.90;;;;;;;3.10;89.44;99932.88;136785;1279;22349;-76
2023/11/09 03:24:59;;;;;;;10.50;4.80;;;;;;;3.09;89.77;99927.03;136768;1279;23011;-75
2023/11/09 03:28:00;;;;;;;9.60;4.40;;;;;;;3.07;89.68;99924.75;136785;1279;22421;-75
2023/11/09 03:31:03;;;;;;;;;;;;;;;3.04;89.54;99922.16;136794;1279;23122;-75
2023/11/09 03:34:04;;;;;;;8.40;4.30;;;;;;;3.03;90.03;99921.09;136644;1279;22461;-75
2023/11/09 03:37:05;;;;;;;7.50;4.30;;;;;;;3.02;89.97;99919.42;136769;1278;22501;-75
2023/11/09 03:40:07;;;;;;;8.40;4.40;;;;;;;3.01;89.66;99918.95;136796;1279;22258;-72
2023/11/09 03:43:08;;;;;;;14.20;4.70;;;;;;;3.01;89.79;99916.49;136607;1279;22440;-75
2023/11/09 03:46:13;;;;;;;10.00;5.80;;;;;;;3.01;89.71;99908.42;136787;1279;22443;-74
2023/11/09 03:49:13;;;;;;;11.70;4.20;;;;;;;3.02;90.04;99901.73;136693;1279;23052;-74
2023/11/09 03:52:17;;;;;;;15.10;4.30;;;;;;;3.04;89.93;99893.68;136756;1279;22511;-75
2023/11/09 03:55:21;;;;;;;8.20;4.20;;;;;;;3.06;89.86;99894.08;136775;1279;22575;-75
2023/11/09 03:58:25;;;;;;;10.80;4.40;;;;;;;3.07;89.72;99891.16;136633;1279;22655;-75
2023/11/09 04:01:28;;;;;;;10.10;4.50;;;;;;;3.08;90.01;99888.48;136789;1279;22313;-73
2023/11/09 04:04:29;;;;;;;9.90;4.20;;;;;;;3.09;89.78;99882.41;136776;1279;22394;-75
2023/11/09 04:07:30;;;;;;;6.80;4.70;;;;;;;3.12;89.80;99882.23;136801;1273;23271;-75
2023/11/09 04:10:30;;;;;;;;;;;;;;;3.12;89.67;99874.65;136650;1279;22420;-75
2023/11/09 04:13:31;;;;;;;7.30;3.50;;;;;;;3.13;89.88;99873.77;136757;1279;22413;-75
2023/11/09 04:16:34;;;;;;;7.40;4.00;;;;;;;3.14;89.39;99872.11;136757;1279;22381;-75
2023/11/09 04:19:34;;;;;;;9.10;3.90;;;;;;;3.16;89.71;99867.40;136777;1279;22370;-75
2023/11/09 04:22:35;;;;;;;6.10;3.60;;;;;;;3.19;89.60;99870.35;136800;1279;22423;-73
2023/11/09 04:25:37;;;;;;;7.50;3.20;;;;;;;3.20;89.60;99866.70;136783;1279;22157;-75
2023/11/09 04:28:37;;;;;;;5.30;3.20;;;;;;;3.24;89.72;99866.25;136801;1279;22559;-75
2023/11/09 04:31:41;;;;;;;5.60;3.60;;;;;;;3.26;89.52;99854.35;136786;1279;23272;-76
2023/11/09 04:34:45;;;;;;;6.70;3.30;;;;;;;3.29;89.50;99853.93;136638;1279;22238;-75
2023/11/09 04:37:49;;;;;;;6.50;4.00;;;;;;;3.29;89.26;99848.84;136654;1278;22534;-75
2023/11/09 04:41:03;;;;;;;6.60;3.90;;;;;;;3.31;89.37;99848.30;136779;1279;22430;-75
2023/11/09 04:44:05;;;;;;;8.40;4.30;;;;;;;3.33;89.25;99839.25;136807;1279;22357;-75
2023/11/09 04:47:11;;;;;;;12.40;6.00;;;;;;;3.34;89.50;99837.81;136814;1279;23097;-74
2023/11/09 04:50:17;;;;;;;10.70;4.60;;;;;;;3.33;89.11;99835.02;136809;1279;22468;-75
2023/11/09 04:53:31;;;;;;;7.50;3.80;;;;;;;3.34;89.22;99832.70;136645;1275;22476;-75
2023/11/09 04:56:52;;;;;;;6.70;3.60;;;;;;;3.34;88.88;99829.36;136803;1279;22424;-75
2023/11/09 05:09:32;;;;;;;6.30;3.60;;;;;;;3.42;88.72;99812.08;136622;1279;23196;-76
2023/11/09 05:12:33;;;;;;;4.70;3.50;;;;;;;3.45;88.98;99812.35;136814;1279;22993;-76
2023/11/09 05:15:33;;;;;;;6.60;3.40;;;;;;;3.49;88.65;99819.20;136762;1279;22435;-75
2023/11/09 05:18:34;;;;;;;7.70;3.20;;;;;;;3.52;88.77;99817.73;136805;1279;22516;-74
2023/11/09 05:21:35;;;;;;;7.10;3.40;;;;;;;3.54;88.64;99812.83;136783;1279;22455;-75
2023/11/09 05:24:42;;;;;;;6.00;2.70;;;;;;;3.58;88.39;99812.10;136801;1279;22235;-75
2023/11/09 05:27:42;;;;;;;6.50;3.50;;;;;;;3.63;88.37;99809.48;136813;1279;22486;-75
2023/11/09 05:30:43;;;;;;;7.40;3.20;;;;;;;3.66;87.95;99808.34;136810;1272;22454;-75
2023/11/09 05:33:44;;;;;;;7.50;2.90;;;;;;;3.69;87.81;99811.46;136834;1279;22520;-75
2023/11/09 05:36:45;;;;;;;10.60;3.70;;;;;;;3.70;87.86;99809.07;136805;1279;22490;-75
2023/11/09 05:39:46;;;;;;;6.30;3.00;;;;;;;3.74;87.49;99808.92;136796;1275;23186;-79
2023/11/09 05:42:47;;;;;;;5.60;3.00;;;;;;;3.77;87.56;99805.08;136837;1279;22247;-76
2023/11/09 05:45:47;;;;;;;6.20;3.10;;;;;;;3.80;87.16;99805.39;136782;1279;22291;-77
2023/11/09 05:48:48;;;;;;;6.70;3.40;;;;;;;3.81;87.11;99806.54;136816;1279;22399;-77
2023/11/09 05:51:50;;;;;;;5.10;2.90;;;;;;;3.81;86.96;99801.12;136798;1279;22329;-79
2023/11/09 05:54:51;;;;;;;8.00;3.80;;;;;;;3.80;86.78;99803.64;136787;1279;22981;-80
2023/11/09 05:57:51;;;;;;;5.90;3.20;;;;;;;3.80;87.00;99794.00;136769;1279;22495;-81
2023/11/09 06:00:52;;;;;;;9.80;3.50;;;;;;;3.80;86.59;99788.77;136768;1279;22438;-79
2023/11/09 06:03:54;;;;;;;8.00;3.50;;;;;;;3.79;86.55;99785.33;136781;1279;22444;-82
2023/11/09 06:06:54;;;;;;;9.20;3.60;;;;;;;3.78;86.17;99787.55;136745;1279;23487;-82
2023/11/09 06:09:55;;;;;;;5.30;3.40;;;;;;;3.77;86.10;99791.81;136680;1279;22464;-80
2023/11/09 06:13:04;;;;;;;7.70;4.30;;;;;;;3.77;85.94;99789.19;136762;1279;22562;-83
2023/11/09 06:16:05;;;;;;;7.00;4.00;;;;;;;3.77;85.95;99787.95;136650;1279;22413;-83
2023/11/09 06:19:07;;;;;;;7.20;3.50;;;;;;;3.80;85.57;99791.77;136825;1278;22391;-83
2023/11/09 06:22:09;;;;;;;7.50;4.10;;;;;;;3.83;85.86;99788.56;136796;1279;22472;-82
2023/11/09 06:25:11;;;;;;;8.70;5.90;;;;;;;3.85;85.63;99784.72;136779;1279;23253;-80
2023/11/09 06:28:12;;;;;;;6.30;3.70;;;;;;;3.87;85.43;99790.98;136606;1279;23806;-82
2023/11/09 06:31:16;;;;;;;9.40;3.50;;;;;;;3.92;85.30;99794.04;136700;1279;23307;-82
2023/11/09 06:34:17;;;;;;;9.00;3.70;;;;;;;3.97;84.99;99796.20;136773;1279;22369;-83
2023/11/09 06:37:17;;;;;;;;;;;;;;;4.02;84.77;99798.39;136790;1279;22498;-80
2023/11/09 06:40:18;;;;;;;7.50;4.00;;;;;;;4.08;84.70;99796.92;136793;1279;22393;-81
2023/11/09 06:43:24;;;;;;;7.10;4.10;;;;;;;4.14;84.35;99800.04;136722;1279;22395;-83
2023/11/09 06:46:26;;;;;;;8.70;4.30;;;;;;;4.19;84.19;99799.05;136792;1279;22405;-81
2023/11/09 06:49:27;;;;;;;12.40;5.70;;;;;;;4.22;83.88;99791.27;136782;1279;23225;-82
2023/11/09 06:52:28;;;;;;;8.00;5.50;;;;;;;4.24;84.08;99791.95;136756;1280;22361;-81
2023/11/09 06:55:28;;;;;;;;;;;;;;;4.26;83.84;99790.20;136749;1279;23491;-81
2023/11/09 06:58:29;;;;;;;8.90;4.70;;;;;;;4.28;84.01;99791.95;136768;1279;22487;-81
2023/11/09 07:01:34;;;;;;;8.10;4.60;;;;;;;4.32;84.00;99800.77;136811;1279;22421;-81
2023/11/09 07:04:35;;;;;;;9.50;4.30;;;;;;;4.37;83.98;99796.27;136783;1279;22425;-82
2023/11/09 07:07:40;;;;;;;17.30;7.80;;;;;;;4.43;83.83;99796.60;136807;1279;22461;-79
2023/11/09 07:10:44;;;;;;;9.30;5.00;;;;;;;4.49;83.82;99804.45;136772;1279;23026;-77
2023/11/09 07:13:45;;;;;;;14.10;6.30;;;;;;;4.56;83.54;99802.88;136775;1279;22427;-78
2023/11/09 07:16:46;;;;;;;10.70;6.10;;;;;;;4.61;83.15;99800.97;136793;1280;22418;-80
2023/11/09 07:19:49;;;;;;;8.20;4.50;;;;;;;4.69;83.27;99800.30;136813;1278;22446;-79
2023/11/09 07:22:56;;;;;;;6.40;4.70;;;;;;;4.79;82.82;99801.15;136591;1279;23314;-80
2023/11/09 07:25:58;;;;;;;8.70;4.20;;;;;;;4.91;82.84;99794.25;136781;1279;22400;-77
2023/11/09 07:28:59;;;;;;;7.10;4.10;;;;;;;5.06;82.71;99797.51;136788;1279;22504;-82
2023/11/09 07:32:00;;;;;;;5.70;4.10;;;;;;;5.14;82.40;99796.05;136773;1279;22462;-80
2023/11/09 07:35:01;;;;;;;8.00;4.00;;;;;;;5.19;82.34;99790.64;136787;1279;22436;-77
2023/11/09 07:38:06;;;;;;;6.30;3.50;;;;;;;5.27;82.45;99790.61;136753;1279;23157;-82
2023/11/09 07:41:14;;;;;;;5.80;4.00;;;;;;;5.35;82.01;99787.56;136770;1279;22263;-81
2023/11/09 07:44:15;;;;;;;6.20;3.80;;;;;;;5.41;81.94;99786.23;136761;1279;22443;-82
2023/11/09 07:47:15;;;;;;;6.90;4.20;;;;;;;5.53;81.94;99778.28;136739;1279;22491;-82
2023/11/09 07:50:16;;;;;;;9.00;4.50;;;;;;;5.72;82.15;99777.30;136775;1276;22466;-80
2023/11/09 07:53:16;;;;;;;6.90;3.80;;;;;;;5.96;81.57;99774.58;136760;1279;22415;-82
2023/11/09 07:56:17;;;;;;;8.00;3.80;;;;;;;6.20;81.58;99770.20;136742;1279;23012;-79
2023/11/09 07:59:18;;;;;;;;;;;;;;;6.41;80.34;99762.92;136780;1279;22460;-80
2023/11/09 08:02:19;;;;;;;9.00;5.50;;;;;;;6.63;80.43;99755.20;136782;1279;23426;-83
2023/11/09 08:05:20;;;;;;;7.90;4.10;;;;;;;6.82;79.95;99745.19;136766;1278;22549;-82
2023/11/09 08:08:23;;;;;;;6.50;3.50;;;;;;;6.98;80.05;99739.90;136769;1279;22485;-81
2023/11/09 08:11:26;;;;;;;6.40;3.30;;;;;;;7.10;79.59;99735.70;136779;1279;23274;-81
2023/11/09 08:14:26;;;;;;;6.80;3.90;;;;;;;7.21;78.81;99736.03;136763;1279;22397;-82
2023/11/09 08:17:27;;;;;;;17.50;5.50;;;;;;;7.29;78.24;99724.85;136785;1280;22454;-79
2023/11/09 08:20:31;;;;;;;5.60;3.80;;;;;;;7.37;78.59;99724.70;136777;1279;22370;-80
2023/11/09 08:23:35;;;;;;;7.00;4.80;;;;;;;7.59;78.84;99725.84;136632;1278;22484;-80
2023/11/09 08:26:35;;;;;;;5.80;3.30;;;;;;;7.83;78.09;99727.48;136798;1279;22613;-82
2023/11/09 08:29:38;;;;;;;5.90;3.90;;;;;;;7.96;77.48;99721.15;136789;1279;22441;-83
2023/11/09 08:32:41;;;;;;;8.20;4.00;;;;;;;8.03;77.05;99718.48;136775;1279;22382;-78
2023/11/09 08:35:43;;;;;;;9.80;4.20;;;;;;;8.16;77.52;99718.16;136773;1279;23092;-82
2023/11/09 08:38:44;;;;;;;7.90;4.20;;;;;;;8.34;76.87;99711.92;136790;1280;23069;-80
2023/11/09 08:41:44;;;;;;;6.40;3.60;;;;;;;8.42;76.30;99715.88;136765;1276;23160;-82
2023/11/09 08:44:45;;;;;;;7.20;3.60;;;;;;;8.48;76.43;99714.79;136802;1279;22413;-80
2023/11/09 08:47:46;;;;;;;7.40;3.80;;;;;;;8.56;75.95;99716.12;136779;1279;22395;-80
2023/11/09 08:50:48;;;;;;;8.60;4.00;;;;;;;8.62;75.39;99714.41;136803;1279;22256;-82
2023/11/09 08:53:49;;;;;;;6.20;3.60;;;;;;;8.79;76.74;99712.43;136800;1279;22263;-80
2023/11/09 08:56:49;;;;;;;8.50;3.80;;;;;;;8.99;74.76;99708.71;136787;1279;22426;-82
2023/11/09 08:59:50;;;;;;;5.80;3.80;;;;;;;9.10;74.79;99703.75;136698;1275;22765;-82
2023/11/09 09:02:51;;;;;;;7.70;3.70;;;;;;;9.31;75.04;99698.95;136799;1279;23125;-82
2023/11/09 09:05:55;;;;;;;10.50;5.20;;;;;;;9.56;74.06;99697.44;136813;1279;22372;-82
2023/11/09 09:08:56;;;;;;;8.40;4.30;;;;;;;9.74;73.50;99697.05;136813;1279;23104;-79
2023/11/09 09:11:58;;;;;;;6.10;3.70;;;;;;;9.87;72.37;99693.84;136640;1279;22529;-81
2023/11/09 09:14:59;;;;;;;6.30;3.70;;;;;;;9.93;71.86;99689.88;136780;1279;22415;-81
2023/11/09 09:18:00;;;;;;;4.80;3.20;;;;;;;10.06;71.23;99687.98;136776;1279;22403;-83
2023/11/09 09:21:08;;;;;;;5.80;3.50;;;;;;;10.11;69.95;99687.79;136774;1280;22423;-80
2023/11/09 09:24:09;;;;;;;8.80;4.70;;;;;;;10.19;70.09;99687.05;136813;1279;22322;-84
2023/11/09 09:27:09;;;;;;;9.70;4.40;;;;;;;10.27;69.83;99687.04;136756;1279;22461;-83
2023/11/09 09:30:13;;;;;;;8.00;3.70;;;;;;;10.38;69.30;99678.23;136789;1279;23080;-80
2023/11/09 09:33:14;;;;;;;6.80;3.00;;;;;;;10.43;68.50;99672.29;136610;1279;22373;-83
2023/11/09 09:36:14;;;;;;;;;;;;;;;10.51;68.28;99667.27;136794;1279;22493;-83
2023/11/09 09:39:16;;;;;;;6.10;3.40;;;;;;;10.59;67.46;99659.09;136799;1279;22634;-82
2023/11/09 09:42:20;;;;;;;3.90;2.70;;;;;;;10.66;67.19;99659.77;136778;1279;22454;-81
2023/11/09 09:45:32;;;;;;;4.90;3.00;;;;;;;10.80;67.13;99656.36;136777;1276;22450;-81
2023/11/09 09:48:33;;;;;;;5.20;2.70;;;;;;;11.00;66.78;99648.69;136624;1279;22510;-83
2023/11/09 09:51:37;;;;;;;4.10;2.60;;;;;;;11.12;65.31;99649.04;136795;1279;22435;-81
2023/11/09 09:54:44;;;;;;;5.80;2.60;;;;;;;11.17;64.29;99646.89;136778;1279;22445;-80
2023/11/09 09:57:45;;;;;;;2.90;2.20;;;;;;;11.21;63.91;99644.19;136789;1280;22446;-83
2023/11/09 10:00:47;;;;;;;4.10;2.60;;;;;;;11.22;63.20;99643.22;136623;1279;22422;-83
2023/11/09 10:03:54;;;;;;;3.60;2.60;;;;;;;11.32;62.44;99643.88;136763;1280;22420;-83
2023/11/09 10:06:55;;;;;;;4.10;2.60;;;;;;;11.38;61.75;99634.94;136784;1279;23638;-83
2023/11/09 10:09:58;;;;;;;2.80;2.40;;;;;;;11.51;62.74;99628.95;136778;1279;22535;-83
2023/11/09 10:13:01;;;;;;;4.10;2.50;;;;;;;11.62;62.11;99621.73;136759;1280;22453;-81
2023/11/09 10:16:02;;;;;;;4.10;2.40;;;;;;;11.53;61.88;99618.99;136756;1280;22459;-83
2023/11/09 10:19:03;;;;;;;4.90;2.30;;;;;;;11.44;60.80;99617.36;136746;1268;22433;-81
2023/11/09 10:22:05;;;;;;;3.80;2.40;;;;;;;11.50;61.16;99618.09;136746;1277;22520;-81
2023/11/09 10:25:11;;;;;;;7.90;2.40;;;;;;;11.55;60.46;99612.07;136727;1279;22452;-81
2023/11/09 10:28:13;;;;;;;4.60;2.80;;;;;;;11.54;60.50;99608.57;136738;1279;22244;-81
2023/11/09 10:31:30;;;;;;;3.90;2.20;;;;;;;11.51;59.69;99598.20;136648;1279;135721;-81
2023/11/09 10:34:30;;;;;;;4.90;2.60;;;;;;;11.48;59.39;99593.78;136728;1279;23085;-83
2023/11/09 10:37:37;;;;;;;4.70;2.50;;;;;;;11.53;59.90;99594.71;136726;1280;22262;-84
2023/11/09 10:40:41;;;;;;;6.00;2.50;;;;;;;11.63;60.90;99590.67;136610;1278;23552;-82
2023/11/09 10:43:43;;;;;;;5.00;2.90;;;;;;;11.73;60.05;99586.69;136746;1269;22427;-84
2023/11/09 10:46:46;;;;;;;5.80;2.80;;;;;;;11.76;60.17;99578.79;136754;1279;23118;-83
2023/11/09 10:49:53;;;;;;;4.80;2.10;;;;;;;11.86;60.79;99575.85;136755;1280;22432;-84
2023/11/09 10:53:04;;;;;;;4.20;2.70;;;;;;;11.97;60.33;99573.04;136746;1279;22416;-79
2023/11/09 10:56:10;;;;;;;3.90;2.50;;;;;;;12.06;59.77;99568.42;136761;1280;22379;-82
2023/11/09 10:59:11;;;;;;;4.40;2.20;;;;;;;12.05;58.96;99569.92;136738;1279;22381;-83
2023/11/09 11:02:20;;;;;;;4.40;2.50;;;;;;;11.97;58.60;99564.08;136746;1278;22387;-82
2023/11/09 11:05:25;;;;;;;3.40;2.10;;;;;;;11.98;59.21;99563.26;136764;1280;22495;-80
2023/11/09 11:08:29;;;;;;;3.40;2.10;;;;;;;12.01;58.19;99568.00;136747;1279;22428;-82
2023/11/09 11:11:33;;;;;;;8.50;2.10;;;;;;;12.12;57.86;99569.83;136727;1279;23164;-82
2023/11/09 11:14:41;;;;;;;4.50;1.60;;;;;;;12.19;56.94;99562.78;136712;1279;22358;-81
2023/11/09 11:18:20;;;;;;;3.30;2.10;;;;;;;12.21;57.20;99560.36;136741;1279;22449;-81
2023/11/09 11:21:52;;;;;;;4.20;1.90;;;;;;;12.33;57.76;99552.88;136287;1280;22256;-82
2023/11/09 11:25:14;;;;;;;4.00;2.00;;;;;;;12.48;57.52;99544.77;136734;1277;22570;-79
2023/11/09 11:28:17;;;;;;;3.00;1.70;;;;;;;12.58;57.27;99540.86;136720;1279;22265;-79
2023/11/09 11:31:20;;;;;;;5.70;2.40;;;;;;;12.66;56.31;99540.87;136712;1279;22393;-81
2023/11/09 11:35:00;;;;;;;2.90;2.00;;;;;;;12.70;54.73;99536.82;136745;1279;22465;-82
2023/11/09 11:38:11;;;;;;;5.60;2.00;;;;;;;12.51;54.53;99528.09;136141;1287;23132;-81
2023/11/09 11:41:12;;;;;;;7.50;3.20;;;;;;;12.30;54.35;99518.22;136157;1280;22400;-81
2023/11/09 11:44:13;;;;;;;3.90;2.70;;;;;;;12.21;54.69;99522.24;136764;1279;23420;-81
2023/11/09 11:47:14;;;;;;;4.40;2.10;;;;;;;12.22;54.65;99518.91;136774;1280;23192;-81
2023/11/09 11:50:16;;;;;;;2.90;1.90;;;;;;;12.26;55.68;99513.69;136739;1279;23557;-83
2023/11/09 11:53:33;;;;;;;4.00;2.20;;;;;;;12.41;56.11;99514.22;136757;1279;22257;-81
2023/11/09 11:56:35;;;;;;;3.40;2.40;;;;;;;12.46;54.50;99514.70;136767;1279;22375;-83
2023/11/09 11:59:40;;;;;;;6.20;2.50;;;;;;;12.43;54.59;99513.95;136746;1279;22460;-83
2023/11/09 12:02:51;;;;;;;5.50;2.20;;;;;;;12.57;54.75;99505.28;136639;1279;23485;-83
2023/11/09 12:06:02;;;;;;;4.70;2.20;;;;;;;12.78;54.06;99501.40;136753;1279;22516;-81
2023/11/09 12:09:10;;;;;;;3.50;1.90;;;;;;;12.90;53.68;99497.58;136651;1279;22476;-83
2023/11/09 12:12:12;;;;;;;5.30;2.00;;;;;;;12.92;52.53;99501.69;136764;1279;22446;-78
2023/11/09 12:15:13;;;;;;;3.80;1.60;;;;;;;12.84;51.40;99495.70;136763;1279;22441;-81
2023/11/09 12:18:14;;;;;;;3.90;1.70;;;;;;;12.75;51.97;99490.45;136758;1279;22412;-81
2023/11/09 12:21:17;;;;;;;3.70;2.00;;;;;;;12.70;51.78;99490.55;136791;1279;22415;-80
2023/11/09 12:24:21;;;;;;;2.50;1.80;;;;;;;12.68;51.95;99485.14;136736;1279;22498;-81
2023/11/09 12:27:24;;;;;;;3.30;2.00;;;;;;;12.69;51.71;99480.84;136534;1279;23642;-80
2023/11/09 12:30:27;;;;;;;3.40;1.70;;;;;;;12.67;51.57;99480.78;136741;1279;22525;-81
2023/11/09 12:33:34;;;;;;;3.50;1.70;;;;;;;12.62;51.41;99474.03;136748;1279;23042;-81
2023/11/09 12:36:41;;;;;;;2.90;1.90;;;;;;;12.58;51.37;99472.95;136652;1279;22451;-82
2023/11/09 12:39:48;;;;;;;4.10;2.00;;;;;;;12.57;51.59;99468.19;136630;1279;23802;-82
2023/11/09 12:42:49;;;;;;;3.10;1.60;;;;;;;12.54;50.99;99466.25;136730;1277;22496;-82
2023/11/09 12:46:08;;;;;;;;;;;;;;;12.44;50.41;99466.21;136768;1279;22404;-80
2023/11/09 12:49:09;;;;;;;2.30;1.40;;;;;;;12.29;51.37;99464.80;136755;1279;22382;-83
2023/11/09 12:52:10;;;;;;;;;;;;;;;12.21;52.12;99460.34;136750;1279;23134;-81
2023/11/09 12:55:13;;;;;;;2.80;1.70;;;;;;;12.11;52.05;99452.53;136739;1272;22367;-80
2023/11/09 12:58:21;;;;;;;4.20;1.90;;;;;;;12.00;52.14;99452.23;136771;1279;23057;-83
2023/11/09 13:01:28;;;;;;;5.80;2.00;;;;;;;11.92;52.22;99451.64;136763;1279;22313;-82
2023/11/09 13:04:41;;;;;;;3.30;2.40;;;;;;;11.86;52.55;99444.84;136748;1279;22402;-82
2023/11/09 13:07:48;;;;;;;7.70;2.00;;;;;;;11.84;52.75;99441.55;136751;1279;22409;-79
2023/11/09 13:10:57;;;;;;;3.20;1.70;;;;;;;11.87;52.88;99436.47;136735;1279;23180;-82
2023/11/09 13:14:00;;;;;;;3.70;2.00;;;;;;;11.90;52.77;99437.67;136740;1279;22532;-83
2023/11/09 13:17:03;;;;;;;3.40;2.10;;;;;;;11.95;52.84;99442.38;136766;1266;22407;-81
2023/11/09 13:20:07;;;;;;;2.70;1.50;;;;;;;11.97;52.82;99436.95;136753;1279;22437;-81
2023/11/09 13:23:12;;;;;;;1.50;1.30;;;;;;;12.00;52.93;99435.01;136756;1279;22424;-81
2023/11/09 13:26:19;;;;;;;4.90;2.40;;;;;;;12.03;52.83;99436.77;136761;1276;22435;-81
2023/11/09 13:29:22;;;;;;;3.20;1.70;;;;;;;12.06;53.09;99434.77;136761;1279;22465;-81
2023/11/09 13:32:26;;;;;;;3.70;1.80;;;;;;;12.07;52.94;99435.34;136630;1279;23070;-82
2023/11/09 13:35:37;;;;;;;3.50;2.10;;;;;;;12.04;53.05;99430.74;136758;1279;22442;-80
2023/11/09 13:41:42;;;;;;;4.60;2.40;;;;;;;11.92;53.53;99433.85;136788;1279;23534;-82
2023/11/09 13:44:43;;;;;;;6.00;3.30;;;;;;;11.87;53.72;99435.36;136796;1279;22433;-82
2023/11/09 13:47:47;;;;;;;4.10;2.50;;;;;;;11.83;54.31;99440.09;136760;1279;22632;-80
2023/11/09 13:50:58;;;;;;;9.10;2.50;;;;;;;11.84;54.49;99443.77;136766;1279;22884;-82
2023/11/09 13:54:24;;;;;;;4.20;3.00;;;;;;;11.82;54.76;99439.09;136767;1276;22419;-82
2023/11/09 13:57:27;;;;;;;6.20;3.00;;;;;;;11.83;55.10;99434.64;136750;1279;22392;-81
2023/11/09 14:00:36;;;;;;;6.60;3.30;;;;;;;11.85;55.30;99429.00;136732;1279;22448;-82
2023/11/09 14:03:40;;;;;;;6.70;3.50;;;;;;;11.86;55.07;99426.97;136805;1279;23362;-82
2023/11/09 14:06:46;;;;;;;7.00;3.10;;;;;;;11.84;55.01;99429.75;136779;1279;22462;-82
2023/11/09 14:09:49;;;;;;;5.70;3.10;;;;;;;11.80;55.35;99428.06;136671;1279;23226;-81
2023/11/09 14:12:49;;;;;;;4.90;2.90;;;;;;;11.75;55.39;99427.58;136776;1279;22454;-81
2023/11/09 14:16:02;;;;;;;8.40;3.40;;;;;;;11.68;55.74;99424.58;136651;1279;22444;-81
2023/11/09 14:19:20;;;;;;;4.40;2.70;;;;;;;11.60;56.09;99430.14;136765;1279;22552;-82
2023/11/09 14:22:26;;;;;;;4.90;2.50;;;;;;;11.54;56.60;99429.34;136798;1279;22439;-82
2023/11/09 14:25:32;;;;;;;8.10;3.60;;;;;;;11.48;56.86;99434.39;136800;1279;22553;-81
2023/11/09 14:28:32;;;;;;;4.00;2.60;;;;;;;11.41;57.13;99437.17;136679;1279;22384;-83
2023/11/09 14:31:39;;;;;;;5.30;2.80;;;;;;;11.33;57.60;99434.41;136727;1279;22413;-83